sensor_id;sensor_type;location;lat;lon;timestamp;P1;durP1;ratioP1;P2;durP2;ratioP2
21497;SDS011;10910;50.932;0.246;2022-07-22T00:01:39;0.50;;;0.50;;
21497;SDS011;10910;50.932;0.246;2022-07-22T00:04:05;0.45;;;0.45;;
21497;SDS011;10910;50.932;0.246;2022-07-22T00:06:31;0.68;;;0.68;;
21497;SDS011;10910;50.932;0.246;2022-07-22T00:08:57;0.50;;;0.50;;
21497;SDS011;10910;50.932;0.246;2022-07-22T00:11:23;0.60;;;0.60;;
21497;SDS011;10910;50.932;0.246;2022-07-22T00:13:49;0.50;;;0.50;;
21497;SDS011;10910;50.932;0.246;2022-07-22T00:16:15;0.40;;;0.40;;
21497;SDS011;10910;50.932;0.246;2022-07-22T00:18:41;0.50;;;0.50;;
21497;SDS011;10910;50.932;0.246;2022-07-22T00:21:08;0.40;;;0.40;;
21497;SDS011;10910;50.932;0.246;2022-07-22T00:23:34;0.40;;;0.40;;
21497;SDS011;10910;50.932;0.246;2022-07-22T00:26:00;0.50;;;0.50;;
21497;SDS011;10910;50.932;0.246;2022-07-22T00:28:26;0.60;;;0.60;;
21497;SDS011;10910;50.932;0.246;2022-07-22T00:30:52;0.50;;;0.50;;
21497;SDS011;10910;50.932;0.246;2022-07-22T00:33:18;0.50;;;0.50;;
21497;SDS011;10910;50.932;0.246;2022-07-22T00:35:44;0.60;;;0.60;;
21497;SDS011;10910;50.932;0.246;2022-07-22T00:38:10;0.60;;;0.60;;
21497;SDS011;10910;50.932;0.246;2022-07-22T00:40:36;0.50;;;0.50;;
21497;SDS011;10910;50.932;0.246;2022-07-22T00:43:02;0.50;;;0.50;;
21497;SDS011;10910;50.932;0.246;2022-07-22T00:45:28;0.60;;;0.60;;
21497;SDS011;10910;50.932;0.246;2022-07-22T00:47:55;0.50;;;0.50;;
21497;SDS011;10910;50.932;0.246;2022-07-22T00:50:21;0.60;;;0.60;;
21497;SDS011;10910;50.932;0.246;2022-07-22T00:52:48;0.50;;;0.50;;
21497;SDS011;10910;50.932;0.246;2022-07-22T00:55:15;0.50;;;0.50;;
21497;SDS011;10910;50.932;0.246;2022-07-22T00:57:41;0.50;;;0.50;;
21497;SDS011;10910;50.932;0.246;2022-07-22T01:00:08;0.60;;;0.60;;
21497;SDS011;10910;50.932;0.246;2022-07-22T01:02:35;0.50;;;0.50;;
21497;SDS011;10910;50.932;0.246;2022-07-22T01:05:01;0.50;;;0.50;;
21497;SDS011;10910;50.932;0.246;2022-07-22T01:07:27;0.40;;;0.40;;
21497;SDS011;10910;50.932;0.246;2022-07-22T01:09:53;0.40;;;0.40;;
21497;SDS011;10910;50.932;0.246;2022-07-22T01:12:19;0.50;;;0.50;;
21497;SDS011;10910;50.932;0.246;2022-07-22T01:14:45;0.45;;;0.45;;
21497;SDS011;10910;50.932;0.246;2022-07-22T01:17:11;0.50;;;0.50;;
21497;SDS011;10910;50.932;0.246;2022-07-22T01:19:37;0.50;;;0.50;;
21497;SDS011;10910;50.932;0.246;2022-07-22T01:22:04;0.50;;;0.50;;
21497;SDS011;10910;50.932;0.246;2022-07-22T01:24:30;0.60;;;0.60;;
21497;SDS011;10910;50.932;0.246;2022-07-22T01:26:57;0.50;;;0.50;;
21497;SDS011;10910;50.932;0.246;2022-07-22T01:29:23;0.50;;;0.50;;
21497;SDS011;10910;50.932;0.246;2022-07-22T01:31:50;0.60;;;0.60;;
21497;SDS011;10910;50.932;0.246;2022-07-22T01:34:16;0.50;;;0.50;;
21497;SDS011;10910;50.932;0.246;2022-07-22T01:36:42;0.43;;;0.43;;
21497;SDS011;10910;50.932;0.246;2022-07-22T01:39:08;0.50;;;0.50;;
21497;SDS011;10910;50.932;0.246;2022-07-22T01:41:34;0.50;;;0.50;;
21497;SDS011;10910;50.932;0.246;2022-07-22T01:44:00;0.50;;;0.50;;
21497;SDS011;10910;50.932;0.246;2022-07-22T01:46:27;0.50;;;0.50;;
21497;SDS011;10910;50.932;0.246;2022-07-22T01:48:53;0.50;;;0.50;;
21497;SDS011;10910;50.932;0.246;2022-07-22T01:51:19;0.50;;;0.50;;
21497;SDS011;10910;50.932;0.246;2022-07-22T01:53:45;0.50;;;0.50;;
21497;SDS011;10910;50.932;0.246;2022-07-22T01:56:11;0.40;;;0.40;;
21497;SDS011;10910;50.932;0.246;2022-07-22T01:58:37;0.50;;;0.50;;
21497;SDS011;10910;50.932;0.246;2022-07-22T02:01:03;0.60;;;0.60;;
21497;SDS011;10910;50.932;0.246;2022-07-22T02:03:30;0.40;;;0.40;;
21497;SDS011;10910;50.932;0.246;2022-07-22T02:05:56;0.50;;;0.50;;
21497;SDS011;10910;50.932;0.246;2022-07-22T02:08:22;0.50;;;0.50;;
21497;SDS011;10910;50.932;0.246;2022-07-22T02:10:48;0.50;;;0.50;;
21497;SDS011;10910;50.932;0.246;2022-07-22T02:13:14;0.50;;;0.50;;
21497;SDS011;10910;50.932;0.246;2022-07-22T02:15:40;0.50;;;0.50;;
21497;SDS011;10910;50.932;0.246;2022-07-22T02:18:13;0.50;;;0.50;;
21497;SDS011;10910;50.932;0.246;2022-07-22T02:20:40;0.57;;;0.57;;
21497;SDS011;10910;50.932;0.246;2022-07-22T02:23:06;0.50;;;0.50;;
21497;SDS011;10910;50.932;0.246;2022-07-22T02:25:33;0.43;;;0.43;;
21497;SDS011;10910;50.932;0.246;2022-07-22T02:27:59;0.50;;;0.50;;
21497;SDS011;10910;50.932;0.246;2022-07-22T02:30:25;0.60;;;0.60;;
21497;SDS011;10910;50.932;0.246;2022-07-22T02:32:51;0.50;;;0.50;;
21497;SDS011;10910;50.932;0.246;2022-07-22T02:35:17;0.60;;;0.60;;
21497;SDS011;10910;50.932;0.246;2022-07-22T02:37:43;0.50;;;0.50;;
21497;SDS011;10910;50.932;0.246;2022-07-22T02:40:09;0.50;;;0.50;;
21497;SDS011;10910;50.932;0.246;2022-07-22T02:42:36;0.50;;;0.50;;
21497;SDS011;10910;50.932;0.246;2022-07-22T02:45:02;0.50;;;0.50;;
21497;SDS011;10910;50.932;0.246;2022-07-22T02:47:28;0.52;;;0.52;;
21497;SDS011;10910;50.932;0.246;2022-07-22T02:49:54;0.50;;;0.50;;
21497;SDS011;10910;50.932;0.246;2022-07-22T02:52:20;0.40;;;0.40;;
21497;SDS011;10910;50.932;0.246;2022-07-22T02:54:46;0.50;;;0.50;;
21497;SDS011;10910;50.932;0.246;2022-07-22T02:57:13;0.60;;;0.60;;
21497;SDS011;10910;50.932;0.246;2022-07-22T02:59:39;0.50;;;0.50;;
21497;SDS011;10910;50.932;0.246;2022-07-22T03:02:05;0.50;;;0.50;;
21497;SDS011;10910;50.932;0.246;2022-07-22T03:04:31;0.60;;;0.60;;
21497;SDS011;10910;50.932;0.246;2022-07-22T03:06:57;0.50;;;0.50;;
21497;SDS011;10910;50.932;0.246;2022-07-22T03:09:23;0.50;;;0.50;;
21497;SDS011;10910;50.932;0.246;2022-07-22T03:11:50;0.50;;;0.50;;
21497;SDS011;10910;50.932;0.246;2022-07-22T03:14:16;0.50;;;0.50;;
21497;SDS011;10910;50.932;0.246;2022-07-22T03:16:43;0.50;;;0.50;;
21497;SDS011;10910;50.932;0.246;2022-07-22T03:19:09;0.50;;;0.50;;
21497;SDS011;10910;50.932;0.246;2022-07-22T03:21:35;0.50;;;0.50;;
21497;SDS011;10910;50.932;0.246;2022-07-22T03:24:02;0.43;;;0.43;;
21497;SDS011;10910;50.932;0.246;2022-07-22T03:26:28;0.50;;;0.50;;
21497;SDS011;10910;50.932;0.246;2022-07-22T03:28:54;0.50;;;0.50;;
21497;SDS011;10910;50.932;0.246;2022-07-22T03:31:20;0.60;;;0.60;;
21497;SDS011;10910;50.932;0.246;2022-07-22T03:33:46;0.50;;;0.50;;
21497;SDS011;10910;50.932;0.246;2022-07-22T03:36:12;0.50;;;0.50;;
21497;SDS011;10910;50.932;0.246;2022-07-22T03:38:38;0.55;;;0.55;;
21497;SDS011;10910;50.932;0.246;2022-07-22T03:41:04;0.50;;;0.50;;
21497;SDS011;10910;50.932;0.246;2022-07-22T03:43:30;0.40;;;0.40;;
21497;SDS011;10910;50.932;0.246;2022-07-22T03:45:56;0.40;;;0.40;;
21497;SDS011;10910;50.932;0.246;2022-07-22T03:48:22;0.50;;;0.50;;
21497;SDS011;10910;50.932;0.246;2022-07-22T03:50:48;0.40;;;0.40;;
21497;SDS011;10910;50.932;0.246;2022-07-22T03:53:16;0.50;;;0.50;;
21497;SDS011;10910;50.932;0.246;2022-07-22T03:55:42;0.50;;;0.50;;
21497;SDS011;10910;50.932;0.246;2022-07-22T03:58:08;0.40;;;0.40;;
21497;SDS011;10910;50.932;0.246;2022-07-22T04:00:34;0.40;;;0.40;;
21497;SDS011;10910;50.932;0.246;2022-07-22T04:03:00;0.50;;;0.50;;
21497;SDS011;10910;50.932;0.246;2022-07-22T04:05:26;0.40;;;0.40;;
21497;SDS011;10910;50.932;0.246;2022-07-22T04:07:53;0.50;;;0.50;;
21497;SDS011;10910;50.932;0.246;2022-07-22T04:10:19;0.60;;;0.60;;
21497;SDS011;10910;50.932;0.246;2022-07-22T04:12:45;0.50;;;0.50;;
21497;SDS011;10910;50.932;0.246;2022-07-22T04:15:11;0.40;;;0.40;;
21497;SDS011;10910;50.932;0.246;2022-07-22T04:17:37;0.50;;;0.50;;
21497;SDS011;10910;50.932;0.246;2022-07-22T04:20:04;0.50;;;0.50;;
21497;SDS011;10910;50.932;0.246;2022-07-22T04:22:31;0.50;;;0.50;;
21497;SDS011;10910;50.932;0.246;2022-07-22T04:24:57;0.60;;;0.60;;
21497;SDS011;10910;50.932;0.246;2022-07-22T04:27:23;0.40;;;0.40;;
21497;SDS011;10910;50.932;0.246;2022-07-22T04:29:49;0.50;;;0.50;;
21497;SDS011;10910;50.932;0.246;2022-07-22T04:32:15;0.50;;;0.50;;
21497;SDS011;10910;50.932;0.246;2022-07-22T04:34:41;0.50;;;0.50;;
21497;SDS011;10910;50.932;0.246;2022-07-22T04:37:08;0.50;;;0.50;;
21497;SDS011;10910;50.932;0.246;2022-07-22T04:39:34;0.57;;;0.57;;
21497;SDS011;10910;50.932;0.246;2022-07-22T04:42:00;0.40;;;0.40;;
21497;SDS011;10910;50.932;0.246;2022-07-22T04:44:26;0.50;;;0.50;;
21497;SDS011;10910;50.932;0.246;2022-07-22T04:46:52;0.50;;;0.50;;
21497;SDS011;10910;50.932;0.246;2022-07-22T04:49:18;0.60;;;0.60;;
21497;SDS011;10910;50.932;0.246;2022-07-22T04:51:44;0.40;;;0.40;;
21497;SDS011;10910;50.932;0.246;2022-07-22T04:54:11;0.50;;;0.50;;
21497;SDS011;10910;50.932;0.246;2022-07-22T04:56:37;0.50;;;0.50;;
21497;SDS011;10910;50.932;0.246;2022-07-22T04:59:03;0.60;;;0.60;;
21497;SDS011;10910;50.932;0.246;2022-07-22T05:01:29;0.40;;;0.40;;
21497;SDS011;10910;50.932;0.246;2022-07-22T05:03:55;0.50;;;0.50;;
21497;SDS011;10910;50.932;0.246;2022-07-22T05:06:21;0.50;;;0.50;;
21497;SDS011;10910;50.932;0.246;2022-07-22T05:08:47;0.50;;;0.50;;
21497;SDS011;10910;50.932;0.246;2022-07-22T05:11:13;0.50;;;0.50;;
21497;SDS011;10910;50.932;0.246;2022-07-22T05:13:39;0.50;;;0.50;;
21497;SDS011;10910;50.932;0.246;2022-07-22T05:16:06;0.60;;;0.60;;
21497;SDS011;10910;50.932;0.246;2022-07-22T05:18:32;0.50;;;0.50;;
21497;SDS011;10910;50.932;0.246;2022-07-22T05:20:59;0.40;;;0.40;;
21497;SDS011;10910;50.932;0.246;2022-07-22T05:23:25;0.40;;;0.40;;
21497;SDS011;10910;50.932;0.246;2022-07-22T05:25:51;0.40;;;0.40;;
21497;SDS011;10910;50.932;0.246;2022-07-22T05:28:18;0.50;;;0.50;;
21497;SDS011;10910;50.932;0.246;2022-07-22T05:30:44;0.50;;;0.50;;
21497;SDS011;10910;50.932;0.246;2022-07-22T05:33:10;0.50;;;0.50;;
21497;SDS011;10910;50.932;0.246;2022-07-22T05:35:36;0.50;;;0.50;;
21497;SDS011;10910;50.932;0.246;2022-07-22T05:38:02;0.50;;;0.50;;
21497;SDS011;10910;50.932;0.246;2022-07-22T05:40:30;0.40;;;0.40;;
21497;SDS011;10910;50.932;0.246;2022-07-22T05:42:57;0.40;;;0.40;;
21497;SDS011;10910;50.932;0.246;2022-07-22T05:45:23;0.50;;;0.50;;
21497;SDS011;10910;50.932;0.246;2022-07-22T05:47:49;0.40;;;0.40;;
21497;SDS011;10910;50.932;0.246;2022-07-22T05:50:15;0.50;;;0.50;;
21497;SDS011;10910;50.932;0.246;2022-07-22T05:52:41;0.50;;;0.50;;
21497;SDS011;10910;50.932;0.246;2022-07-22T05:55:08;0.50;;;0.50;;
21497;SDS011;10910;50.932;0.246;2022-07-22T05:57:35;0.50;;;0.50;;
21497;SDS011;10910;50.932;0.246;2022-07-22T06:00:02;0.30;;;0.30;;
21497;SDS011;10910;50.932;0.246;2022-07-22T06:02:31;0.50;;;0.50;;
21497;SDS011;10910;50.932;0.246;2022-07-22T06:04:58;0.50;;;0.50;;
21497;SDS011;10910;50.932;0.246;2022-07-22T06:07:25;0.40;;;0.40;;
21497;SDS011;10910;50.932;0.246;2022-07-22T06:09:51;0.52;;;0.52;;
21497;SDS011;10910;50.932;0.246;2022-07-22T06:12:17;0.50;;;0.50;;
21497;SDS011;10910;50.932;0.246;2022-07-22T06:14:43;0.40;;;0.40;;
21497;SDS011;10910;50.932;0.246;2022-07-22T06:17:11;0.50;;;0.50;;
21497;SDS011;10910;50.932;0.246;2022-07-22T06:19:37;0.50;;;0.50;;
21497;SDS011;10910;50.932;0.246;2022-07-22T06:22:03;0.50;;;0.50;;
21497;SDS011;10910;50.932;0.246;2022-07-22T06:24:29;0.50;;;0.50;;
21497;SDS011;10910;50.932;0.246;2022-07-22T06:26:55;0.40;;;0.40;;
21497;SDS011;10910;50.932;0.246;2022-07-22T06:29:21;0.50;;;0.50;;
21497;SDS011;10910;50.932;0.246;2022-07-22T06:31:47;0.47;;;0.47;;
21497;SDS011;10910;50.932;0.246;2022-07-22T06:34:13;0.30;;;0.30;;
21497;SDS011;10910;50.932;0.246;2022-07-22T06:36:39;0.50;;;0.50;;
21497;SDS011;10910;50.932;0.246;2022-07-22T06:39:05;0.40;;;0.40;;
21497;SDS011;10910;50.932;0.246;2022-07-22T06:41:32;0.40;;;0.40;;
21497;SDS011;10910;50.932;0.246;2022-07-22T06:43:58;0.40;;;0.40;;
21497;SDS011;10910;50.932;0.246;2022-07-22T06:46:24;0.50;;;0.50;;
21497;SDS011;10910;50.932;0.246;2022-07-22T06:48:50;0.40;;;0.40;;
21497;SDS011;10910;50.932;0.246;2022-07-22T06:51:16;0.50;;;0.50;;
21497;SDS011;10910;50.932;0.246;2022-07-22T06:53:42;0.40;;;0.40;;
21497;SDS011;10910;50.932;0.246;2022-07-22T06:56:08;0.50;;;0.50;;
21497;SDS011;10910;50.932;0.246;2022-07-22T06:58:34;0.40;;;0.40;;
21497;SDS011;10910;50.932;0.246;2022-07-22T07:01:01;0.40;;;0.40;;
21497;SDS011;10910;50.932;0.246;2022-07-22T07:03:27;0.30;;;0.30;;
21497;SDS011;10910;50.932;0.246;2022-07-22T07:05:53;0.50;;;0.50;;
21497;SDS011;10910;50.932;0.246;2022-07-22T07:08:19;0.40;;;0.40;;
21497;SDS011;10910;50.932;0.246;2022-07-22T07:10:45;0.40;;;0.40;;
21497;SDS011;10910;50.932;0.246;2022-07-22T07:13:11;0.50;;;0.50;;
21497;SDS011;10910;50.932;0.246;2022-07-22T07:15:37;0.50;;;0.50;;
21497;SDS011;10910;50.932;0.246;2022-07-22T07:18:03;0.40;;;0.40;;
21497;SDS011;10910;50.932;0.246;2022-07-22T07:20:30;0.50;;;0.50;;
21497;SDS011;10910;50.932;0.246;2022-07-22T07:22:59;0.50;;;0.50;;
21497;SDS011;10910;50.932;0.246;2022-07-22T07:25:25;0.40;;;0.40;;
21497;SDS011;10910;50.932;0.246;2022-07-22T07:27:51;0.40;;;0.40;;
21497;SDS011;10910;50.932;0.246;2022-07-22T07:30:17;0.40;;;0.40;;
21497;SDS011;10910;50.932;0.246;2022-07-22T07:32:44;0.40;;;0.40;;
21497;SDS011;10910;50.932;0.246;2022-07-22T07:35:10;0.40;;;0.40;;
21497;SDS011;10910;50.932;0.246;2022-07-22T07:37:36;0.40;;;0.40;;
21497;SDS011;10910;50.932;0.246;2022-07-22T07:40:03;0.50;;;0.50;;
21497;SDS011;10910;50.932;0.246;2022-07-22T07:42:29;0.35;;;0.35;;
21497;SDS011;10910;50.932;0.246;2022-07-22T07:44:55;0.40;;;0.40;;
21497;SDS011;10910;50.932;0.246;2022-07-22T07:47:22;0.40;;;0.40;;
21497;SDS011;10910;50.932;0.246;2022-07-22T07:49:48;0.40;;;0.40;;
21497;SDS011;10910;50.932;0.246;2022-07-22T07:52:15;0.40;;;0.40;;
21497;SDS011;10910;50.932;0.246;2022-07-22T07:54:41;0.40;;;0.40;;
21497;SDS011;10910;50.932;0.246;2022-07-22T07:57:08;0.43;;;0.43;;
21497;SDS011;10910;50.932;0.246;2022-07-22T07:59:35;0.43;;;0.43;;
21497;SDS011;10910;50.932;0.246;2022-07-22T08:02:01;0.55;;;0.55;;
21497;SDS011;10910;50.932;0.246;2022-07-22T08:04:27;0.40;;;0.40;;
21497;SDS011;10910;50.932;0.246;2022-07-22T08:06:53;0.50;;;0.50;;
21497;SDS011;10910;50.932;0.246;2022-07-22T08:09:19;0.30;;;0.30;;
21497;SDS011;10910;50.932;0.246;2022-07-22T08:11:46;0.40;;;0.40;;
21497;SDS011;10910;50.932;0.246;2022-07-22T08:14:12;0.40;;;0.40;;
21497;SDS011;10910;50.932;0.246;2022-07-22T08:16:38;0.40;;;0.40;;
21497;SDS011;10910;50.932;0.246;2022-07-22T08:19:04;0.40;;;0.40;;
21497;SDS011;10910;50.932;0.246;2022-07-22T08:21:30;0.50;;;0.50;;
21497;SDS011;10910;50.932;0.246;2022-07-22T08:23:56;0.40;;;0.40;;
21497;SDS011;10910;50.932;0.246;2022-07-22T08:26:22;0.40;;;0.40;;
21497;SDS011;10910;50.932;0.246;2022-07-22T08:28:48;0.30;;;0.30;;
21497;SDS011;10910;50.932;0.246;2022-07-22T08:31:15;0.40;;;0.40;;
21497;SDS011;10910;50.932;0.246;2022-07-22T08:33:41;0.50;;;0.50;;
21497;SDS011;10910;50.932;0.246;2022-07-22T08:36:07;0.40;;;0.40;;
21497;SDS011;10910;50.932;0.246;2022-07-22T08:38:33;0.40;;;0.40;;
21497;SDS011;10910;50.932;0.246;2022-07-22T08:41:00;0.40;;;0.40;;
21497;SDS011;10910;50.932;0.246;2022-07-22T08:43:28;0.43;;;0.43;;
21497;SDS011;10910;50.932;0.246;2022-07-22T08:45:56;0.40;;;0.40;;
21497;SDS011;10910;50.932;0.246;2022-07-22T08:48:22;0.40;;;0.40;;
21497;SDS011;10910;50.932;0.246;2022-07-22T08:50:48;0.40;;;0.40;;
21497;SDS011;10910;50.932;0.246;2022-07-22T08:53:14;0.30;;;0.30;;
21497;SDS011;10910;50.932;0.246;2022-07-22T08:55:41;0.40;;;0.40;;
21497;SDS011;10910;50.932;0.246;2022-07-22T08:58:07;0.30;;;0.30;;
21497;SDS011;10910;50.932;0.246;2022-07-22T09:00:34;0.30;;;0.30;;
21497;SDS011;10910;50.932;0.246;2022-07-22T09:03:00;0.40;;;0.40;;
21497;SDS011;10910;50.932;0.246;2022-07-22T09:05:42;0.35;;;0.35;;
21497;SDS011;10910;50.932;0.246;2022-07-22T09:08:08;0.30;;;0.30;;
21497;SDS011;10910;50.932;0.246;2022-07-22T09:10:34;0.20;;;0.20;;
21497;SDS011;10910;50.932;0.246;2022-07-22T09:13:02;0.30;;;0.30;;
21497;SDS011;10910;50.932;0.246;2022-07-22T09:15:32;0.30;;;0.30;;
21497;SDS011;10910;50.932;0.246;2022-07-22T09:18:01;0.30;;;0.30;;
21497;SDS011;10910;50.932;0.246;2022-07-22T09:20:28;0.30;;;0.30;;
21497;SDS011;10910;50.932;0.246;2022-07-22T09:22:54;0.40;;;0.40;;
21497;SDS011;10910;50.932;0.246;2022-07-22T09:25:36;0.30;;;0.30;;
21497;SDS011;10910;50.932;0.246;2022-07-22T09:30:32;0.30;;;0.30;;
21497;SDS011;10910;50.932;0.246;2022-07-22T09:32:59;0.30;;;0.30;;
21497;SDS011;10910;50.932;0.246;2022-07-22T09:35:25;0.20;;;0.20;;
21497;SDS011;10910;50.932;0.246;2022-07-22T09:38:01;0.20;;;0.20;;
21497;SDS011;10910;50.932;0.246;2022-07-22T09:40:31;0.20;;;0.20;;
21497;SDS011;10910;50.932;0.246;2022-07-22T09:43:00;0.30;;;0.30;;
21497;SDS011;10910;50.932;0.246;2022-07-22T09:45:27;0.22;;;0.22;;
21497;SDS011;10910;50.932;0.246;2022-07-22T09:47:57;0.30;;;0.30;;
21497;SDS011;10910;50.932;0.246;2022-07-22T09:50:27;0.30;;;0.30;;
21497;SDS011;10910;50.932;0.246;2022-07-22T09:52:54;0.20;;;0.20;;
21497;SDS011;10910;50.932;0.246;2022-07-22T09:55:21;0.30;;;0.30;;
21497;SDS011;10910;50.932;0.246;2022-07-22T09:57:48;0.20;;;0.20;;
21497;SDS011;10910;50.932;0.246;2022-07-22T10:00:16;0.20;;;0.20;;
21497;SDS011;10910;50.932;0.246;2022-07-22T10:02:49;0.20;;;0.20;;
21497;SDS011;10910;50.932;0.246;2022-07-22T10:05:18;0.20;;;0.20;;
21497;SDS011;10910;50.932;0.246;2022-07-22T10:07:46;0.20;;;0.20;;
21497;SDS011;10910;50.932;0.246;2022-07-22T10:10:14;0.10;;;0.10;;
21497;SDS011;10910;50.932;0.246;2022-07-22T10:12:41;0.20;;;0.20;;
21497;SDS011;10910;50.932;0.246;2022-07-22T10:15:08;0.20;;;0.20;;
21497;SDS011;10910;50.932;0.246;2022-07-22T10:17:38;0.20;;;0.20;;
21497;SDS011;10910;50.932;0.246;2022-07-22T10:20:05;0.20;;;0.20;;
21497;SDS011;10910;50.932;0.246;2022-07-22T10:25:10;0.20;;;0.20;;
21497;SDS011;10910;50.932;0.246;2022-07-22T10:30:12;0.13;;;0.13;;
21497;SDS011;10910;50.932;0.246;2022-07-22T10:32:39;0.20;;;0.20;;
21497;SDS011;10910;50.932;0.246;2022-07-22T10:37:38;0.10;;;0.10;;
21497;SDS011;10910;50.932;0.246;2022-07-22T10:43:17;0.10;;;0.10;;
21497;SDS011;10910;50.932;0.246;2022-07-22T10:45:45;0.10;;;0.10;;
21497;SDS011;10910;50.932;0.246;2022-07-22T10:48:17;0.20;;;0.20;;
21497;SDS011;10910;50.932;0.246;2022-07-22T10:50:51;0.20;;;0.20;;
21497;SDS011;10910;50.932;0.246;2022-07-22T10:53:24;0.10;;;0.10;;
21497;SDS011;10910;50.932;0.246;2022-07-22T10:56:06;0.20;;;0.20;;
21497;SDS011;10910;50.932;0.246;2022-07-22T11:01:00;0.20;;;0.20;;
21497;SDS011;10910;50.932;0.246;2022-07-22T11:03:28;0.20;;;0.20;;
21497;SDS011;10910;50.932;0.246;2022-07-22T11:05:54;0.20;;;0.20;;
21497;SDS011;10910;50.932;0.246;2022-07-22T11:08:21;0.30;;;0.30;;
21497;SDS011;10910;50.932;0.246;2022-07-22T11:10:50;0.20;;;0.20;;
21497;SDS011;10910;50.932;0.246;2022-07-22T11:13:32;0.20;;;0.20;;
21497;SDS011;10910;50.932;0.246;2022-07-22T11:18:52;0.20;;;0.20;;
21497;SDS011;10910;50.932;0.246;2022-07-22T11:21:20;0.20;;;0.20;;
21497;SDS011;10910;50.932;0.246;2022-07-22T11:23:47;0.30;;;0.30;;
21497;SDS011;10910;50.932;0.246;2022-07-22T11:26:14;0.20;;;0.20;;
21497;SDS011;10910;50.932;0.246;2022-07-22T11:28:41;0.30;;;0.30;;
21497;SDS011;10910;50.932;0.246;2022-07-22T11:31:08;0.30;;;0.30;;
21497;SDS011;10910;50.932;0.246;2022-07-22T11:33:34;0.30;;;0.30;;
21497;SDS011;10910;50.932;0.246;2022-07-22T11:36:02;0.30;;;0.30;;
21497;SDS011;10910;50.932;0.246;2022-07-22T11:38:49;0.30;;;0.30;;
21497;SDS011;10910;50.932;0.246;2022-07-22T11:41:15;0.30;;;0.30;;
21497;SDS011;10910;50.932;0.246;2022-07-22T11:43:42;0.30;;;0.30;;
21497;SDS011;10910;50.932;0.246;2022-07-22T11:46:09;0.40;;;0.40;;
21497;SDS011;10910;50.932;0.246;2022-07-22T11:48:35;0.38;;;0.38;;
21497;SDS011;10910;50.932;0.246;2022-07-22T11:51:03;0.30;;;0.30;;
21497;SDS011;10910;50.932;0.246;2022-07-22T11:53:29;0.30;;;0.30;;
21497;SDS011;10910;50.932;0.246;2022-07-22T11:55:59;0.40;;;0.40;;
21497;SDS011;10910;50.932;0.246;2022-07-22T12:01:00;0.30;;;0.30;;
21497;SDS011;10910;50.932;0.246;2022-07-22T12:03:27;0.30;;;0.30;;
21497;SDS011;10910;50.932;0.246;2022-07-22T12:05:53;0.30;;;0.30;;
21497;SDS011;10910;50.932;0.246;2022-07-22T12:08:20;0.35;;;0.35;;
21497;SDS011;10910;50.932;0.246;2022-07-22T12:10:46;0.40;;;0.40;;
21497;SDS011;10910;50.932;0.246;2022-07-22T12:13:12;0.30;;;0.30;;
21497;SDS011;10910;50.932;0.246;2022-07-22T12:15:39;0.30;;;0.30;;
21497;SDS011;10910;50.932;0.246;2022-07-22T12:18:18;0.30;;;0.30;;
21497;SDS011;10910;50.932;0.246;2022-07-22T12:20:45;0.30;;;0.30;;
21497;SDS011;10910;50.932;0.246;2022-07-22T12:23:12;0.20;;;0.20;;
21497;SDS011;10910;50.932;0.246;2022-07-22T12:25:51;0.30;;;0.30;;
21497;SDS011;10910;50.932;0.246;2022-07-22T12:28:17;0.28;;;0.28;;
21497;SDS011;10910;50.932;0.246;2022-07-22T12:30:43;0.20;;;0.20;;
21497;SDS011;10910;50.932;0.246;2022-07-22T12:33:16;0.20;;;0.20;;
21497;SDS011;10910;50.932;0.246;2022-07-22T12:35:43;0.30;;;0.30;;
21497;SDS011;10910;50.932;0.246;2022-07-22T12:38:10;0.30;;;0.30;;
21497;SDS011;10910;50.932;0.246;2022-07-22T12:40:37;0.20;;;0.20;;
21497;SDS011;10910;50.932;0.246;2022-07-22T12:43:07;0.30;;;0.30;;
21497;SDS011;10910;50.932;0.246;2022-07-22T12:45:35;0.40;;;0.40;;
21497;SDS011;10910;50.932;0.246;2022-07-22T12:50:41;0.40;;;0.40;;
21497;SDS011;10910;50.932;0.246;2022-07-22T12:55:38;0.20;;;0.20;;
21497;SDS011;10910;50.932;0.246;2022-07-22T12:58:05;0.20;;;0.20;;
21497;SDS011;10910;50.932;0.246;2022-07-22T13:00:33;0.10;;;0.10;;
21497;SDS011;10910;50.932;0.246;2022-07-22T13:02:59;0.20;;;0.20;;
21497;SDS011;10910;50.932;0.246;2022-07-22T13:05:26;0.10;;;0.10;;
21497;SDS011;10910;50.932;0.246;2022-07-22T13:07:52;0.20;;;0.20;;
21497;SDS011;10910;50.932;0.246;2022-07-22T13:10:19;0.20;;;0.20;;
21497;SDS011;10910;50.932;0.246;2022-07-22T13:12:46;0.10;;;0.10;;
21497;SDS011;10910;50.932;0.246;2022-07-22T13:15:13;0.10;;;0.10;;
21497;SDS011;10910;50.932;0.246;2022-07-22T13:17:39;0.10;;;0.10;;
21497;SDS011;10910;50.932;0.246;2022-07-22T13:20:06;0.10;;;0.10;;
21497;SDS011;10910;50.932;0.246;2022-07-22T13:22:32;0.20;;;0.20;;
21497;SDS011;10910;50.932;0.246;2022-07-22T13:24:58;0.20;;;0.20;;
21497;SDS011;10910;50.932;0.246;2022-07-22T13:27:24;0.10;;;0.10;;
21497;SDS011;10910;50.932;0.246;2022-07-22T13:29:50;0.10;;;0.10;;
21497;SDS011;10910;50.932;0.246;2022-07-22T13:32:17;0.13;;;0.13;;
21497;SDS011;10910;50.932;0.246;2022-07-22T13:34:43;0.17;;;0.17;;
21497;SDS011;10910;50.932;0.246;2022-07-22T13:37:09;0.20;;;0.20;;
21497;SDS011;10910;50.932;0.246;2022-07-22T13:39:35;0.10;;;0.10;;
21497;SDS011;10910;50.932;0.246;2022-07-22T13:42:02;0.20;;;0.20;;
21497;SDS011;10910;50.932;0.246;2022-07-22T13:44:28;0.20;;;0.20;;
21497;SDS011;10910;50.932;0.246;2022-07-22T13:46:55;0.20;;;0.20;;
21497;SDS011;10910;50.932;0.246;2022-07-22T13:49:22;0.20;;;0.20;;
21497;SDS011;10910;50.932;0.246;2022-07-22T13:51:49;0.20;;;0.20;;
21497;SDS011;10910;50.932;0.246;2022-07-22T13:54:16;0.20;;;0.20;;
21497;SDS011;10910;50.932;0.246;2022-07-22T13:56:42;0.20;;;0.20;;
21497;SDS011;10910;50.932;0.246;2022-07-22T13:59:12;0.20;;;0.20;;
21497;SDS011;10910;50.932;0.246;2022-07-22T14:01:39;0.30;;;0.30;;
21497;SDS011;10910;50.932;0.246;2022-07-22T14:04:05;0.30;;;0.30;;
21497;SDS011;10910;50.932;0.246;2022-07-22T14:06:35;0.30;;;0.30;;
21497;SDS011;10910;50.932;0.246;2022-07-22T14:09:01;0.28;;;0.28;;
21497;SDS011;10910;50.932;0.246;2022-07-22T14:11:28;0.20;;;0.20;;
21497;SDS011;10910;50.932;0.246;2022-07-22T14:13:54;0.20;;;0.20;;
21497;SDS011;10910;50.932;0.246;2022-07-22T14:16:20;0.20;;;0.20;;
21497;SDS011;10910;50.932;0.246;2022-07-22T14:18:59;0.30;;;0.30;;
21497;SDS011;10910;50.932;0.246;2022-07-22T14:21:25;0.30;;;0.30;;
21497;SDS011;10910;50.932;0.246;2022-07-22T14:23:51;0.20;;;0.20;;
21497;SDS011;10910;50.932;0.246;2022-07-22T14:26:17;0.30;;;0.30;;
21497;SDS011;10910;50.932;0.246;2022-07-22T14:28:44;0.20;;;0.20;;
21497;SDS011;10910;50.932;0.246;2022-07-22T14:31:10;0.20;;;0.20;;
21497;SDS011;10910;50.932;0.246;2022-07-22T14:33:36;0.10;;;0.10;;
21497;SDS011;10910;50.932;0.246;2022-07-22T14:36:02;0.20;;;0.20;;
21497;SDS011;10910;50.932;0.246;2022-07-22T14:38:28;0.20;;;0.20;;
21497;SDS011;10910;50.932;0.246;2022-07-22T14:40:54;0.20;;;0.20;;
21497;SDS011;10910;50.932;0.246;2022-07-22T14:43:20;0.20;;;0.20;;
21497;SDS011;10910;50.932;0.246;2022-07-22T14:45:46;0.20;;;0.20;;
21497;SDS011;10910;50.932;0.246;2022-07-22T14:48:12;0.17;;;0.17;;
21497;SDS011;10910;50.932;0.246;2022-07-22T14:50:38;0.10;;;0.10;;
21497;SDS011;10910;50.932;0.246;2022-07-22T14:53:04;0.20;;;0.20;;
21497;SDS011;10910;50.932;0.246;2022-07-22T14:55:30;0.20;;;0.20;;
21497;SDS011;10910;50.932;0.246;2022-07-22T14:57:56;0.13;;;0.13;;
21497;SDS011;10910;50.932;0.246;2022-07-22T15:00:22;0.20;;;0.20;;
21497;SDS011;10910;50.932;0.246;2022-07-22T15:02:48;0.20;;;0.20;;
21497;SDS011;10910;50.932;0.246;2022-07-22T15:05:14;0.10;;;0.10;;
21497;SDS011;10910;50.932;0.246;2022-07-22T15:07:40;0.20;;;0.20;;
21497;SDS011;10910;50.932;0.246;2022-07-22T15:10:07;0.10;;;0.10;;
21497;SDS011;10910;50.932;0.246;2022-07-22T15:12:33;0.10;;;0.10;;